createdAt,value
2018-08-31T00:00:02.328Z,18.70
2018-08-31T00:02:38.725Z,17.60
2018-08-31T00:05:42.081Z,19.47
2018-08-31T00:09:16.257Z,18.90
2018-08-31T00:11:50.078Z,17.30
2018-08-31T00:14:18.425Z,17.47
2018-08-31T00:16:46.686Z,18.07
2018-08-31T00:19:15.255Z,20.03
2018-08-31T00:21:43.340Z,21.00
2018-08-31T00:24:17.571Z,21.40
2018-08-31T00:26:51.223Z,19.90
2018-08-31T00:29:34.662Z,19.13
2018-08-31T00:34:13.136Z,21.77
2018-08-31T00:36:46.720Z,21.70
2018-08-31T00:39:21.141Z,21.30
2018-08-31T00:43:56.210Z,21.70
2018-08-31T00:46:25.117Z,21.23
2018-08-31T00:48:53.266Z,22.00
2018-08-31T00:51:21.265Z,22.40
2018-08-31T00:53:49.343Z,22.30
2018-08-31T00:56:17.711Z,24.07
2018-08-31T00:58:45.710Z,22.03
2018-08-31T01:01:13.720Z,23.43
2018-08-31T01:03:42.191Z,24.40
2018-08-31T01:06:11.291Z,21.33
2018-08-31T01:08:39.744Z,23.00
2018-08-31T01:11:08.156Z,23.87
2018-08-31T01:13:36.923Z,23.07
2018-08-31T01:16:05.705Z,23.67
2018-08-31T01:18:34.345Z,21.47
2018-08-31T01:21:04.335Z,24.30
2018-08-31T01:23:32.796Z,21.17
2018-08-31T01:26:01.731Z,19.60
2018-08-31T01:28:30.341Z,21.50
2018-08-31T01:30:58.777Z,20.80
2018-08-31T01:33:26.745Z,21.87
2018-08-31T01:35:55.381Z,23.53
2018-08-31T01:38:23.603Z,23.93
2018-08-31T01:40:54.298Z,25.43
2018-08-31T01:43:22.330Z,22.60
2018-08-31T01:45:50.428Z,25.00
2018-08-31T01:48:18.533Z,23.97
2018-08-31T01:50:52.150Z,24.00
2018-08-31T01:53:20.138Z,21.47
2018-08-31T01:55:48.205Z,21.10
2018-08-31T01:58:16.271Z,20.93
2018-08-31T02:03:43.072Z,18.60
2018-08-31T02:06:11.235Z,18.70
2018-08-31T02:09:43.020Z,21.07
2018-08-31T02:12:11.074Z,17.70
2018-08-31T02:14:39.620Z,20.07
2018-08-31T02:17:08.563Z,22.60
2018-08-31T02:19:36.788Z,21.23
2018-08-31T02:22:04.973Z,21.60
2018-08-31T02:24:33.382Z,20.50
2018-08-31T02:27:01.744Z,24.07
2018-08-31T02:29:30.228Z,21.23
2018-08-31T02:31:58.692Z,22.93
2018-08-31T02:34:27.004Z,21.43
2018-08-31T02:36:55.059Z,23.23
2018-08-31T02:39:23.313Z,22.63
2018-08-31T02:41:51.374Z,25.33
2018-08-31T02:44:19.544Z,24.57
2018-08-31T02:46:47.529Z,21.07
2018-08-31T02:49:16.278Z,23.60
2018-08-31T02:51:44.268Z,22.63
2018-08-31T02:54:12.625Z,24.00
2018-08-31T02:56:40.954Z,22.93
2018-08-31T02:59:09.329Z,23.90
2018-08-31T03:01:37.798Z,22.23
2018-08-31T03:04:06.201Z,23.27
2018-08-31T03:06:34.431Z,22.50
2018-08-31T03:09:02.967Z,21.80
2018-08-31T03:11:32.130Z,21.63
2018-08-31T03:14:01.257Z,21.07
2018-08-31T03:16:30.235Z,21.03
2018-08-31T03:18:58.548Z,20.00
2018-08-31T03:21:27.044Z,19.13
2018-08-31T03:23:55.273Z,21.60
2018-08-31T03:26:23.282Z,20.87
2018-08-31T03:28:51.572Z,20.70
2018-08-31T03:31:19.675Z,19.90
2018-08-31T03:33:47.824Z,20.97
2018-08-31T03:36:15.848Z,21.00
2018-08-31T03:38:43.904Z,21.40
2018-08-31T03:41:12.132Z,22.27
2018-08-31T03:43:40.473Z,23.43
2018-08-31T03:46:08.813Z,23.50
2018-08-31T03:48:37.249Z,21.90
2018-08-31T03:51:05.666Z,23.00
2018-08-31T03:53:35.730Z,23.00
2018-08-31T03:56:04.060Z,22.33
2018-08-31T03:58:33.043Z,20.73
2018-08-31T04:01:01.391Z,21.97
2018-08-31T04:03:29.612Z,23.90
2018-08-31T04:05:57.604Z,23.17
2018-08-31T04:08:25.594Z,21.90
2018-08-31T04:10:53.585Z,21.80
2018-08-31T04:13:21.894Z,22.73
2018-08-31T04:15:49.865Z,21.00
2018-08-31T04:18:17.868Z,22.17
2018-08-31T04:20:45.939Z,22.80
2018-08-31T04:23:13.995Z,20.90
2018-08-31T04:25:42.245Z,21.13
2018-08-31T04:28:10.783Z,22.23
2018-08-31T04:30:40.485Z,20.30
2018-08-31T04:33:09.536Z,22.03
2018-08-31T04:35:38.036Z,21.10
2018-08-31T04:38:06.128Z,20.40
2018-08-31T04:40:34.718Z,19.70
2018-08-31T04:43:03.606Z,20.00
2018-08-31T04:45:32.093Z,27.90
2018-08-31T04:48:00.547Z,23.10
2018-08-31T04:50:30.099Z,22.17
2018-08-31T04:52:58.501Z,22.90
2018-08-31T04:55:28.501Z,23.27
2018-08-31T04:57:58.721Z,22.80
2018-08-31T05:00:26.801Z,22.07
2018-08-31T05:02:54.921Z,22.90
2018-08-31T05:05:23.865Z,21.60
2018-08-31T05:07:51.895Z,20.50
2018-08-31T05:10:20.034Z,26.23
2018-08-31T05:12:48.153Z,23.50
2018-08-31T05:15:17.313Z,24.50
2018-08-31T05:17:46.217Z,26.30
2018-08-31T05:20:14.726Z,27.00
2018-08-31T05:22:44.098Z,24.80
2018-08-31T05:25:18.433Z,27.43
2018-08-31T05:27:48.665Z,25.83
2018-08-31T05:30:16.991Z,28.77
2018-08-31T05:32:44.985Z,24.30
2018-08-31T05:35:15.483Z,28.50
2018-08-31T05:37:44.007Z,24.30
2018-08-31T05:42:45.850Z,27.63
2018-08-31T05:45:13.882Z,27.20
2018-08-31T05:50:30.188Z,30.37
2018-08-31T05:52:58.367Z,29.37
2018-08-31T05:55:26.336Z,28.17
2018-08-31T05:57:56.264Z,29.90
2018-08-31T06:00:24.325Z,31.20
2018-08-31T06:02:52.324Z,29.80
2018-08-31T06:05:30.065Z,30.70
2018-08-31T06:07:59.077Z,32.50
2018-08-31T06:10:29.468Z,28.80
2018-08-31T06:12:58.982Z,25.43
2018-08-31T06:15:28.586Z,28.20
2018-08-31T06:17:57.272Z,28.03
2018-08-31T06:20:27.979Z,29.83
2018-08-31T06:22:56.457Z,28.20
2018-08-31T06:25:24.540Z,28.30
2018-08-31T06:27:52.635Z,29.83
2018-08-31T06:30:20.850Z,28.73
2018-08-31T06:32:48.892Z,30.40
2018-08-31T06:35:16.953Z,28.87
2018-08-31T06:37:45.957Z,29.60
2018-08-31T06:40:14.548Z,27.60
2018-08-31T06:45:25.172Z,32.17
2018-08-31T06:48:00.350Z,30.80
2018-08-31T06:50:28.941Z,32.80
2018-08-31T06:52:57.337Z,34.00
2018-08-31T06:55:25.443Z,31.37
2018-08-31T06:57:56.189Z,33.90
2018-08-31T07:00:24.867Z,36.63
2018-08-31T07:02:52.897Z,29.77
2018-08-31T07:05:21.174Z,30.13
2018-08-31T07:07:49.615Z,31.17
2018-08-31T07:10:30.415Z,29.33
2018-08-31T07:12:58.971Z,30.10
2018-08-31T07:15:31.863Z,30.73
2018-08-31T07:18:01.554Z,27.60
2018-08-31T07:20:30.852Z,29.07
2018-08-31T07:23:02.550Z,30.57
2018-08-31T07:25:32.582Z,28.80
2018-08-31T07:28:00.884Z,28.27
2018-08-31T07:30:30.298Z,29.07
2018-08-31T07:32:58.946Z,29.30
2018-08-31T07:35:33.737Z,30.97
2018-08-31T07:38:11.150Z,28.60
2018-08-31T07:43:19.310Z,28.77
2018-08-31T07:46:00.240Z,25.07
2018-08-31T07:48:32.914Z,25.63
2018-08-31T07:51:02.136Z,25.60
2018-08-31T07:53:30.642Z,26.97
2018-08-31T07:56:03.521Z,27.90
2018-08-31T07:58:43.494Z,28.40
2018-08-31T08:01:12.088Z,25.37
2018-08-31T08:06:32.515Z,25.50
2018-08-31T08:11:38.762Z,24.77
2018-08-31T08:16:48.783Z,27.13
2018-08-31T08:19:17.091Z,26.80
2018-08-31T08:24:22.761Z,24.47
2018-08-31T08:26:50.943Z,26.20
2018-08-31T08:29:20.169Z,27.40
2018-08-31T08:31:48.792Z,27.00
2018-08-31T08:34:21.946Z,25.87
2018-08-31T08:36:50.451Z,27.70
2018-08-31T08:39:18.646Z,29.60
2018-08-31T08:41:46.993Z,29.97
2018-08-31T08:44:20.214Z,29.00
2018-08-31T08:46:52.098Z,28.73
2018-08-31T08:49:30.278Z,30.10
2018-08-31T08:52:00.414Z,29.47
2018-08-31T08:59:53.423Z,33.97
2018-08-31T09:02:23.040Z,34.67
2018-08-31T09:04:51.922Z,34.30
2018-08-31T09:07:20.486Z,33.47
2018-08-31T09:09:49.561Z,36.10
2018-08-31T09:12:18.005Z,33.57
2018-08-31T09:14:49.579Z,36.93
2018-08-31T09:17:18.888Z,34.77
2018-08-31T09:19:59.428Z,39.77
2018-08-31T09:25:11.224Z,37.40
2018-08-31T09:27:39.855Z,41.57
2018-08-31T09:30:17.781Z,39.43
2018-08-31T09:32:47.388Z,39.00
2018-08-31T09:35:17.158Z,40.90
2018-08-31T09:37:46.317Z,38.50
2018-08-31T09:40:23.642Z,39.63
2018-08-31T09:45:33.871Z,37.60
2018-08-31T09:50:40.979Z,41.60
2018-08-31T09:53:09.742Z,43.57
2018-08-31T09:55:38.339Z,40.73
2018-08-31T09:58:06.995Z,40.00
2018-08-31T10:00:45.949Z,39.83
2018-08-31T10:06:00.981Z,40.40
2018-08-31T10:13:44.717Z,42.17
2018-08-31T10:16:18.600Z,40.63
2018-08-31T10:18:46.863Z,41.10
2018-08-31T10:21:24.056Z,39.83
2018-08-31T10:23:52.639Z,39.30
2018-08-31T10:26:20.721Z,41.73
2018-08-31T10:31:43.682Z,39.23
2018-08-31T10:34:13.793Z,38.07
2018-08-31T10:36:42.785Z,39.40
2018-08-31T10:41:57.542Z,38.10
2018-08-31T10:44:25.856Z,40.70
2018-08-31T10:49:44.259Z,37.97
2018-08-31T10:52:20.978Z,40.37
2018-08-31T10:57:39.353Z,40.07
2018-08-31T11:00:12.251Z,39.47
2018-08-31T11:02:46.494Z,42.87
2018-08-31T11:07:58.492Z,43.80
2018-08-31T11:13:15.004Z,39.83
2018-08-31T11:15:44.243Z,37.63
2018-08-31T11:18:18.053Z,37.97
2018-08-31T11:23:33.248Z,23.67
2018-08-31T11:26:02.886Z,28.67
2018-08-31T11:31:26.738Z,26.00
2018-08-31T11:34:00.958Z,25.33
2018-08-31T11:36:43.900Z,28.90
2018-08-31T11:39:14.509Z,26.63
2018-08-31T11:41:42.890Z,29.07
2018-08-31T11:44:12.684Z,27.87
2018-08-31T11:46:41.314Z,26.60
2018-08-31T11:51:50.969Z,21.33
2018-08-31T11:54:19.192Z,21.80
2018-08-31T11:59:35.722Z,20.20
2018-08-31T12:02:08.043Z,21.60
2018-08-31T12:07:16.329Z,20.37
2018-08-31T12:09:44.645Z,20.23
2018-08-31T12:15:12.877Z,20.27
2018-08-31T12:17:41.695Z,22.00
2018-08-31T12:20:10.379Z,22.53
2018-08-31T12:22:43.782Z,19.70
2018-08-31T12:25:12.598Z,23.10
2018-08-31T12:30:22.278Z,19.93
2018-08-31T12:32:50.446Z,17.70
2018-08-31T12:35:18.937Z,20.37
2018-08-31T12:37:47.699Z,19.57
2018-08-31T12:42:57.896Z,23.03
2018-08-31T12:45:33.936Z,24.60
2018-08-31T12:48:03.541Z,24.23
2018-08-31T12:53:15.402Z,25.40
2018-08-31T12:55:45.033Z,26.20
2018-08-31T12:58:15.709Z,26.23
2018-08-31T13:00:56.867Z,25.43
2018-08-31T13:03:32.796Z,26.60
2018-08-31T13:08:44.098Z,26.50
2018-08-31T13:13:57.397Z,31.30
2018-08-31T13:16:25.892Z,31.00
2018-08-31T13:19:03.077Z,26.80
2018-08-31T13:21:39.030Z,17.97
2018-08-31T13:24:07.626Z,17.87
2018-08-31T13:29:30.775Z,17.90
2018-08-31T13:31:59.340Z,16.93
2018-08-31T13:34:32.815Z,18.93
2018-08-31T13:37:03.954Z,18.00
2018-08-31T13:39:37.618Z,17.77
2018-08-31T13:42:07.331Z,19.97
2018-08-31T13:44:35.861Z,19.50
2018-08-31T13:47:07.376Z,20.67
2018-08-31T13:49:36.929Z,22.07
2018-08-31T13:52:06.409Z,23.23
2018-08-31T13:54:39.691Z,21.33
2018-08-31T13:57:10.445Z,24.63
2018-08-31T13:59:42.808Z,23.27
2018-08-31T14:02:15.424Z,24.17
2018-08-31T14:04:43.662Z,26.23
2018-08-31T14:07:21.448Z,22.83
2018-08-31T14:09:50.314Z,20.63
2018-08-31T14:12:18.498Z,20.50
2018-08-31T14:14:50.809Z,17.57
2018-08-31T14:17:23.472Z,17.10
2018-08-31T14:19:52.802Z,17.90
2018-08-31T14:22:21.449Z,22.37
2018-08-31T14:24:49.896Z,20.13
2018-08-31T14:35:45.954Z,24.83
2018-08-31T14:38:14.414Z,24.10
2018-08-31T14:40:43.203Z,24.57
2018-08-31T14:43:11.950Z,25.63
2018-08-31T14:45:44.074Z,27.67
2018-08-31T14:48:12.332Z,25.93
2018-08-31T14:50:41.349Z,25.27
2018-08-31T14:56:01.577Z,22.60
2018-08-31T14:58:30.760Z,22.40
2018-08-31T15:00:59.408Z,17.60
2018-08-31T15:03:29.097Z,18.30
2018-08-31T15:06:01.828Z,19.60
2018-08-31T15:08:31.642Z,19.80
2018-08-31T15:13:35.165Z,22.13
2018-08-31T15:18:37.494Z,20.67
2018-08-31T15:21:05.917Z,21.87
2018-08-31T15:23:34.576Z,19.20
2018-08-31T15:26:04.535Z,20.23
2018-08-31T15:28:35.012Z,20.33
2018-08-31T15:31:05.060Z,20.30
2018-08-31T15:33:40.188Z,20.80
2018-08-31T15:36:11.106Z,20.27
2018-08-31T15:38:39.806Z,19.53
2018-08-31T15:41:16.698Z,20.70
2018-08-31T15:43:47.094Z,20.63
2018-08-31T15:46:15.274Z,20.57
2018-08-31T15:48:49.490Z,20.57
2018-08-31T15:51:31.051Z,21.33
2018-08-31T15:54:11.558Z,20.40
2018-08-31T15:56:46.077Z,20.80
2018-08-31T15:59:15.356Z,24.30
2018-08-31T16:01:49.138Z,23.50
2018-08-31T16:04:17.496Z,21.97
2018-08-31T16:06:46.302Z,23.27
2018-08-31T16:09:14.665Z,22.97
2018-08-31T16:14:15.663Z,26.53
2018-08-31T16:16:44.718Z,26.03
2018-08-31T16:19:17.818Z,26.30
2018-08-31T16:21:48.024Z,26.30
2018-08-31T16:24:16.142Z,26.80
2018-08-31T16:26:44.855Z,24.57
2018-08-31T16:29:16.924Z,25.23
2018-08-31T16:31:46.214Z,24.80
2018-08-31T16:36:58.282Z,25.50
2018-08-31T16:39:33.049Z,25.90
2018-08-31T16:42:02.004Z,27.07
2018-08-31T16:44:30.864Z,26.60
2018-08-31T16:46:59.665Z,24.67
2018-08-31T16:49:33.123Z,26.17
2018-08-31T16:52:03.537Z,28.40
2018-08-31T16:54:33.303Z,27.20
2018-08-31T16:57:02.962Z,27.13
2018-08-31T17:05:01.487Z,29.90
2018-08-31T17:10:05.059Z,28.90
2018-08-31T17:12:33.552Z,31.27
2018-08-31T17:15:10.804Z,30.87
2018-08-31T17:17:50.307Z,30.50
2018-08-31T17:22:54.676Z,33.30
2018-08-31T17:25:32.320Z,32.60
2018-08-31T17:28:06.503Z,32.00
2018-08-31T17:35:27.981Z,33.23
2018-08-31T17:40:38.533Z,33.07
2018-08-31T17:51:13.353Z,37.30
2018-08-31T17:53:42.715Z,38.50
2018-08-31T17:59:04.190Z,36.53
2018-08-31T18:07:02.750Z,36.87
2018-08-31T18:09:31.692Z,37.00
2018-08-31T18:14:41.067Z,36.93
2018-08-31T18:19:45.129Z,35.90
2018-08-31T18:22:14.049Z,35.77
2018-08-31T18:24:42.318Z,38.13
2018-08-31T18:29:43.197Z,34.17
2018-08-31T18:32:12.146Z,34.50
2018-08-31T18:34:40.540Z,35.90
2018-08-31T18:37:11.698Z,34.17
2018-08-31T18:39:40.177Z,35.07
2018-08-31T18:42:16.691Z,33.27
2018-08-31T18:44:50.842Z,34.67
2018-08-31T18:47:19.271Z,37.50
2018-08-31T18:49:49.075Z,36.37
2018-08-31T18:52:22.833Z,34.00
2018-08-31T18:54:51.385Z,34.40
2018-08-31T19:00:07.137Z,31.90
2018-08-31T19:02:36.661Z,32.47
2018-08-31T19:05:04.843Z,33.67
2018-08-31T19:07:34.079Z,34.20
2018-08-31T19:10:02.559Z,35.57
2018-08-31T19:12:31.942Z,35.40
2018-08-31T19:15:06.430Z,36.83
2018-08-31T19:17:34.812Z,39.13
2018-08-31T19:20:03.145Z,36.57
2018-08-31T19:22:32.422Z,39.13
2018-08-31T19:25:00.588Z,41.70
2018-08-31T19:27:33.316Z,41.13
2018-08-31T19:30:01.627Z,40.13
2018-08-31T19:37:45.529Z,42.53
2018-08-31T19:40:17.759Z,41.07
2018-08-31T19:45:34.050Z,42.47
2018-08-31T19:48:02.306Z,41.00
2018-08-31T19:50:35.535Z,42.70
2018-08-31T19:53:03.791Z,44.37
2018-08-31T19:55:32.796Z,43.37
2018-08-31T19:58:06.656Z,43.20
2018-08-31T20:00:34.924Z,40.93
2018-08-31T20:03:03.676Z,43.30
2018-08-31T20:05:32.187Z,39.93
2018-08-31T20:08:00.363Z,41.33
2018-08-31T20:10:28.379Z,41.83
2018-08-31T20:12:59.552Z,41.53
2018-08-31T20:15:32.407Z,40.87
2018-08-31T20:18:00.814Z,38.00
2018-08-31T20:20:29.502Z,36.20
2018-08-31T20:22:57.500Z,37.13
2018-08-31T20:25:25.782Z,32.87
2018-08-31T20:27:54.525Z,35.00
2018-08-31T20:30:26.846Z,35.73
2018-08-31T20:32:58.102Z,33.73
2018-08-31T20:35:26.896Z,32.50
2018-08-31T20:37:55.938Z,36.30
2018-08-31T20:40:24.191Z,36.93
2018-08-31T20:42:52.376Z,34.67
2018-08-31T20:45:21.372Z,34.83
2018-08-31T20:47:49.536Z,35.43
2018-08-31T20:50:18.911Z,34.73
2018-08-31T20:52:47.520Z,34.63
2018-08-31T20:55:17.863Z,37.43
2018-08-31T20:57:47.973Z,36.30
2018-08-31T21:00:16.102Z,41.70
2018-08-31T21:02:45.071Z,38.97
2018-08-31T21:05:13.262Z,36.93
2018-08-31T21:07:41.291Z,36.27
2018-08-31T21:10:09.676Z,35.00
2018-08-31T21:12:37.896Z,37.77
2018-08-31T21:15:06.195Z,38.37
2018-08-31T21:17:34.237Z,37.27
2018-08-31T21:20:02.611Z,38.50
2018-08-31T21:22:30.743Z,35.50
2018-08-31T21:24:58.817Z,35.37
2018-08-31T21:27:26.868Z,37.90
2018-08-31T21:29:54.930Z,36.17
2018-08-31T21:32:23.119Z,38.50
2018-08-31T21:34:51.245Z,36.77
2018-08-31T21:37:19.256Z,38.23
2018-08-31T21:39:47.349Z,38.57
2018-08-31T21:42:15.476Z,36.20
2018-08-31T21:44:43.892Z,40.47
2018-08-31T21:47:12.156Z,39.10
2018-08-31T21:49:40.281Z,40.00
2018-08-31T21:52:08.633Z,41.33
2018-08-31T21:54:37.307Z,39.17
2018-08-31T21:57:05.757Z,41.90
2018-08-31T21:59:33.777Z,42.87
2018-08-31T22:02:02.363Z,40.67
2018-08-31T22:04:30.422Z,40.37
2018-08-31T22:06:58.731Z,41.60
2018-08-31T22:09:27.003Z,41.70
2018-08-31T22:11:58.158Z,40.07
2018-08-31T22:14:26.799Z,41.90
2018-08-31T22:16:55.690Z,39.63
2018-08-31T22:19:23.858Z,40.17
2018-08-31T22:21:52.946Z,40.43
2018-08-31T22:24:21.509Z,40.20
2018-08-31T22:26:49.576Z,37.10
2018-08-31T22:29:17.635Z,37.03
2018-08-31T22:31:45.899Z,36.50
2018-08-31T22:34:14.010Z,34.83
2018-08-31T22:39:40.807Z,38.30
2018-08-31T22:42:09.169Z,36.30
2018-08-31T22:44:39.561Z,36.00
2018-08-31T22:47:07.507Z,37.20
2018-08-31T22:49:35.698Z,35.63
2018-08-31T22:52:03.805Z,36.60
2018-08-31T22:54:31.892Z,36.03
2018-08-31T22:56:59.845Z,33.60
2018-08-31T22:59:27.891Z,38.03
2018-08-31T23:01:55.793Z,37.40
2018-08-31T23:04:23.870Z,38.10
2018-08-31T23:06:51.938Z,36.80
2018-08-31T23:09:19.921Z,37.20
2018-08-31T23:11:48.903Z,39.47
2018-08-31T23:14:16.861Z,34.67
2018-08-31T23:16:45.083Z,38.70
2018-08-31T23:19:13.056Z,40.40
2018-08-31T23:21:41.114Z,42.20
2018-08-31T23:24:09.128Z,40.57
2018-08-31T23:26:37.187Z,39.87
2018-08-31T23:29:05.459Z,39.87
2018-08-31T23:31:34.118Z,39.50
2018-08-31T23:34:02.212Z,39.07
2018-08-31T23:36:30.238Z,40.80
2018-08-31T23:38:58.313Z,43.40
2018-08-31T23:41:26.428Z,36.80
2018-08-31T23:43:54.353Z,40.77
2018-08-31T23:46:22.351Z,43.20
2018-08-31T23:48:50.351Z,37.70
2018-08-31T23:51:18.326Z,40.17
2018-08-31T23:53:46.429Z,40.90
2018-08-31T23:56:14.414Z,41.77
2018-08-31T23:58:42.383Z,43.50
